Time;durP1;ratioP1;P1;durP2;ratioP2;P2;SDS_P1;SDS_P2;PMS_P1;PMS_P2;Temp;Humidity;BMP_temperature;BMP_pressure;BME280_temperature;BME280_humidity;BME280_pressure;Samples;Min_cycle;Max_cycle;Signal;HPM_P1;HPM_P2
2021/12/30 00:01:44;;;;;;;8.30;5.30;;;4.90;78.40;;;;;;5034675;28;20258;-70
2021/12/30 00:04:10;;;;;;;5.70;4.70;;;4.90;78.40;;;;;;5032943;28;20184;-69
2021/12/30 00:06:40;;;;;;;6.20;4.17;;;4.90;78.40;;;;;;5034313;28;20222;-69
2021/12/30 00:09:10;;;;;;;7.77;5.13;;;4.90;78.80;;;;;;5034965;28;20171;-67
2021/12/30 00:11:37;;;;;;;7.17;5.50;;;4.90;79.20;;;;;;5034802;28;20404;-69
2021/12/30 00:14:03;;;;;;;5.73;5.23;;;4.90;79.50;;;;;;5032948;28;20903;-69
2021/12/30 00:16:29;;;;;;;4.80;4.37;;;4.90;79.50;;;;;;5034747;28;20436;-69
2021/12/30 00:18:55;;;;;;;9.43;5.13;;;4.90;80.10;;;;;;5034674;28;20406;-71
2021/12/30 00:21:21;;;;;;;5.73;4.23;;;4.90;80.70;;;;;;5034495;28;20178;-68
2021/12/30 00:23:47;;;;;;;4.47;4.10;;;5.00;80.90;;;;;;5033581;28;20637;-69
2021/12/30 00:26:13;;;;;;;7.70;4.20;;;5.00;81.10;;;;;;5034536;28;20426;-70
2021/12/30 00:28:39;;;;;;;7.53;4.67;;;5.00;81.00;;;;;;5034648;28;20405;-67
2021/12/30 00:31:05;;;;;;;6.03;4.80;;;5.00;81.00;;;;;;5033437;28;20806;-69
2021/12/30 00:33:32;;;;;;;5.43;4.63;;;5.00;81.10;;;;;;5033751;28;20217;-69
2021/12/30 00:35:59;;;;;;;4.50;4.10;;;4.90;80.90;;;;;;5034465;28;20425;-70
2021/12/30 00:38:25;;;;;;;4.80;4.40;;;4.90;80.90;;;;;;5034344;28;20934;-70
2021/12/30 00:40:51;;;;;;;4.90;4.40;;;5.00;81.60;;;;;;5033865;28;20550;-70
2021/12/30 00:43:17;;;;;;;7.63;4.73;;;5.00;82.30;;;;;;5033651;28;20173;-69
2021/12/30 00:45:43;;;;;;;5.03;4.53;;;5.00;82.20;;;;;;5032871;28;20436;-69
2021/12/30 00:48:09;;;;;;;4.87;4.30;;;5.00;82.40;;;;;;5034032;28;20417;-69
2021/12/30 00:50:36;;;;;;;7.00;5.30;;;5.00;82.50;;;;;;5034028;28;20186;-69
2021/12/30 00:53:03;;;;;;;4.07;3.77;;;5.00;82.50;;;;;;5033377;28;20464;-69
2021/12/30 00:55:29;;;;;;;6.27;4.40;;;5.00;83.10;;;;;;5034093;28;20409;-70
2021/12/30 00:57:55;;;;;;;5.50;4.30;;;5.00;83.40;;;;;;5033555;28;20452;-70
2021/12/30 01:00:22;;;;;;;5.57;5.03;;;5.10;83.80;;;;;;5032323;28;20631;-69
2021/12/30 01:02:48;;;;;;;6.50;4.43;;;5.10;83.60;;;;;;5033379;28;20209;-69
2021/12/30 01:05:14;;;;;;;7.23;4.47;;;5.00;83.30;;;;;;5033856;28;20423;-69
2021/12/30 01:07:40;;;;;;;8.07;4.60;;;5.00;83.80;;;;;;5033765;28;20422;-68
2021/12/30 01:10:09;;;;;;;5.40;4.90;;;5.10;84.60;;;;;;5032800;28;20450;-69
2021/12/30 01:12:35;;;;;;;5.43;4.93;;;5.10;85.50;;;;;;5032881;28;20460;-68
2021/12/30 01:15:07;;;;;;;7.93;5.70;;;5.20;85.60;;;;;;5033063;28;20405;-70
2021/12/30 01:17:46;;;;;;;8.70;6.27;;;5.20;85.60;;;;;;5032881;28;20418;-70
2021/12/30 01:20:14;;;;;;;9.40;6.73;;;5.30;86.10;;;;;;5033533;28;20484;-71
2021/12/30 01:22:40;;;;;;;6.73;5.90;;;5.30;86.40;;;;;;5032971;28;20498;-68
2021/12/30 01:25:07;;;;;;;13.47;7.07;;;5.40;87.20;;;;;;5032533;28;20506;-69
2021/12/30 01:27:36;;;;;;;10.97;7.67;;;5.40;87.70;;;;;;5033375;28;20190;-69
2021/12/30 01:30:04;;;;;;;10.40;7.13;;;5.50;88.30;;;;;;5032500;28;20471;-71
2021/12/30 01:32:30;;;;;;;20.13;7.07;;;5.50;88.80;;;;;;5031963;28;20454;-70
2021/12/30 01:34:56;;;;;;;12.57;7.20;;;5.50;89.30;;;;;;5033365;28;20454;-69
2021/12/30 01:37:23;;;;;;;17.60;8.07;;;5.60;89.80;;;;;;5032099;28;20202;-68
2021/12/30 01:39:49;;;;;;;9.70;6.93;;;5.60;90.10;;;;;;5033317;28;20171;-69
2021/12/30 01:42:15;;;;;;;11.63;8.37;;;5.70;90.20;;;;;;5032446;28;20752;-70
2021/12/30 01:44:41;;;;;;;11.30;7.20;;;5.60;90.10;;;;;;5032009;28;20656;-68
2021/12/30 01:47:07;;;;;;;20.20;7.10;;;5.60;90.20;;;;;;5033124;28;20501;-68
2021/12/30 01:49:33;;;;;;;12.20;6.50;;;5.60;90.30;;;;;;5032975;28;20898;-70
2021/12/30 01:52:00;;;;;;;9.90;7.37;;;5.70;90.70;;;;;;5032142;28;20465;-71
2021/12/30 01:54:27;;;;;;;13.33;7.83;;;5.70;91.00;;;;;;5032947;28;20560;-69
2021/12/30 01:56:56;;;;;;;14.80;7.20;;;5.80;91.40;;;;;;5032928;28;20428;-71
2021/12/30 01:59:23;;;;;;;12.07;6.80;;;5.80;91.60;;;;;;5033202;28;20401;-68
2021/12/30 02:01:53;;;;;;;8.93;6.40;;;5.90;92.10;;;;;;5032900;28;20398;-69
2021/12/30 02:04:19;;;;;;;18.90;8.67;;;5.90;92.20;;;;;;5032455;28;20411;-69
2021/12/30 02:06:45;;;;;;;11.37;7.90;;;5.90;92.20;;;;;;5032879;28;20433;-70
2021/12/30 02:09:11;;;;;;;14.30;7.60;;;5.90;92.20;;;;;;5032224;28;20406;-68
2021/12/30 02:11:37;;;;;;;12.90;8.30;;;6.00;92.30;;;;;;5032756;28;20482;-70
2021/12/30 02:14:02;;;;;;;10.20;7.73;;;6.10;92.40;;;;;;5032308;28;20883;-69
2021/12/30 02:16:28;;;;;;;10.93;6.67;;;6.00;92.50;;;;;;5032799;28;20191;-69
2021/12/30 02:18:54;;;;;;;13.17;7.60;;;6.10;92.80;;;;;;5032711;28;20213;-71
2021/12/30 02:21:19;;;;;;;13.20;7.33;;;6.00;92.90;;;;;;5032907;28;20232;-68
2021/12/30 02:23:45;;;;;;;9.73;7.97;;;6.10;93.30;;;;;;5032182;28;20176;-68
2021/12/30 02:26:17;;;;;;;12.37;8.33;;;6.10;93.30;;;;;;5032435;28;20191;-70
2021/12/30 02:28:43;;;;;;;11.30;6.77;;;6.10;94.20;;;;;;5032738;28;20167;-69
2021/12/30 02:31:25;;;;;;;18.63;9.20;;;6.10;97.50;;;;;;5036602;28;20450;-70
2021/12/30 02:33:52;;;;;;;9.17;6.83;;;6.20;99.20;;;;;;5036014;28;20452;-70
2021/12/30 02:36:24;;;;;;;13.83;8.57;;;6.10;99.80;;;;;;5036558;28;20454;-69
2021/12/30 02:38:49;;;;;;;11.93;7.20;;;6.20;99.90;;;;;;5036679;28;20793;-68
2021/12/30 02:41:19;;;;;;;12.13;8.30;;;6.20;99.90;;;;;;5036769;28;20485;-69
2021/12/30 02:43:47;;;;;;;18.20;10.20;;;6.20;99.90;;;;;;5035890;28;20704;-69
2021/12/30 02:46:14;;;;;;;17.47;7.70;;;6.20;99.90;;;;;;5035910;28;20425;-69
2021/12/30 02:48:41;;;;;;;15.60;8.60;;;6.30;99.90;;;;;;5036537;28;20497;-68
2021/12/30 02:51:09;;;;;;;14.23;8.40;;;6.30;99.90;;;;;;5036185;28;20430;-69
2021/12/30 02:53:35;;;;;;;19.33;10.43;;;6.40;99.90;;;;;;5035657;28;20452;-69
2021/12/30 02:56:02;;;;;;;14.33;9.60;;;6.50;99.90;;;;;;5036349;28;20425;-69
2021/12/30 02:58:28;;;;;;;16.30;9.10;;;6.60;99.90;;;;;;5036257;28;20478;-69
2021/12/30 03:01:03;;;;;;;19.37;7.30;;;6.60;99.90;;;;;;5036231;28;20430;-70
2021/12/30 03:03:29;;;;;;;17.57;8.50;;;6.60;99.90;;;;;;5035050;28;20167;-70
2021/12/30 03:05:57;;;;;;;14.97;8.90;;;6.70;99.90;;;;;;5035927;28;20436;-68
2021/12/30 03:08:23;;;;;;;14.67;8.27;;;6.60;99.90;;;;;;5036073;28;20163;-70
2021/12/30 03:10:50;;;;;;;10.90;7.03;;;6.70;99.90;;;;;;5036097;28;20407;-69
2021/12/30 03:13:18;;;;;;;20.80;8.80;;;6.70;99.90;;;;;;5035238;28;20529;-70
2021/12/30 03:15:46;;;;;;;13.67;7.33;;;6.70;99.90;;;;;;5035951;28;20425;-68
2021/12/30 03:18:12;;;;;;;14.90;8.30;;;6.70;99.90;;;;;;5035907;28;20902;-69
2021/12/30 03:20:37;;;;;;;7.73;5.90;;;6.70;99.90;;;;;;5035550;28;20472;-69
2021/12/30 03:23:04;;;;;;;15.00;8.23;;;6.80;99.90;;;;;;5034853;28;20434;-70
2021/12/30 03:25:31;;;;;;;11.53;6.93;;;6.80;99.90;;;;;;5035739;28;20171;-70
2021/12/30 03:27:57;;;;;;;8.17;5.90;;;6.80;99.90;;;;;;5035767;28;20398;-70
2021/12/30 03:30:24;;;;;;;10.87;6.53;;;6.90;99.90;;;;;;5035785;28;20403;-69
2021/12/30 03:32:50;;;;;;;26.33;7.17;;;6.90;99.90;;;;;;5034955;28;20974;-69
2021/12/30 03:35:16;;;;;;;11.47;5.67;;;6.90;99.90;;;;;;5035550;28;20933;-70
2021/12/30 03:37:43;;;;;;;8.47;6.07;;;6.90;99.90;;;;;;5035040;28;20476;-69
2021/12/30 03:40:12;;;;;;;19.33;6.60;;;7.00;99.90;;;;;;5035286;28;20427;-68
2021/12/30 03:42:38;;;;;;;14.90;5.83;;;6.90;99.90;;;;;;5033995;28;20406;-68
2021/12/30 03:45:07;;;;;;;10.43;6.00;;;6.90;99.90;;;;;;5035394;28;20817;-69
2021/12/30 03:47:37;;;;;;;16.90;6.60;;;6.90;99.90;;;;;;5035237;28;20214;-69
2021/12/30 03:50:04;;;;;;;9.43;5.97;;;6.90;99.90;;;;;;5035461;28;20457;-68
2021/12/30 03:52:31;;;;;;;16.87;6.70;;;6.90;99.90;;;;;;5034533;28;20441;-70
2021/12/30 03:54:57;;;;;;;15.47;4.90;;;6.80;99.90;;;;;;5035276;28;20402;-69
2021/12/30 03:57:23;;;;;;;12.37;4.60;;;6.90;99.90;;;;;;5034934;28;20422;-69
2021/12/30 03:59:48;;;;;;;10.43;4.50;;;6.90;99.90;;;;;;5035096;28;20860;-71
2021/12/30 04:02:14;;;;;;;12.20;4.50;;;6.90;99.90;;;;;;5034466;28;20410;-71
2021/12/30 04:04:41;;;;;;;16.70;4.50;;;6.90;99.90;;;;;;5035169;28;20194;-69
2021/12/30 04:07:06;;;;;;;11.27;3.87;;;6.90;99.90;;;;;;5034896;28;20250;-69
2021/12/30 04:09:32;;;;;;;6.13;4.73;;;6.90;99.90;;;;;;5034867;28;20398;-71
2021/12/30 04:11:58;;;;;;;11.73;4.80;;;6.90;99.90;;;;;;5034473;28;20194;-72
2021/12/30 04:14:26;;;;;;;15.80;4.57;;;6.90;99.90;;;;;;5034102;28;20174;-70
2021/12/30 04:16:52;;;;;;;18.73;4.70;;;6.80;99.90;;;;;;5034854;28;20183;-70
2021/12/30 04:19:18;;;;;;;15.77;3.87;;;6.80;99.90;;;;;;5034831;28;20786;-69
2021/12/30 04:21:44;;;;;;;9.23;3.50;;;6.80;99.90;;;;;;5034600;28;20449;-70
2021/12/30 04:24:10;;;;;;;3.83;3.33;;;6.80;99.90;;;;;;5034128;28;20167;-68
2021/12/30 04:26:36;;;;;;;5.63;3.70;;;6.80;99.90;;;;;;5034579;28;20234;-69
2021/12/30 04:29:03;;;;;;;10.73;4.20;;;6.80;99.90;;;;;;5034319;28;20430;-70
2021/12/30 04:31:28;;;;;;;18.87;5.50;;;6.80;99.90;;;;;;5034606;28;20255;-69
2021/12/30 04:33:54;;;;;;;9.53;3.93;;;6.80;99.90;;;;;;5033155;28;20497;-70
2021/12/30 04:36:19;;;;;;;18.50;4.90;;;6.70;99.90;;;;;;5034386;28;20230;-69
2021/12/30 04:38:45;;;;;;;11.30;3.20;;;6.60;99.90;;;;;;5034518;28;20537;-69
2021/12/30 04:41:11;;;;;;;6.33;3.50;;;6.60;99.90;;;;;;5034312;28;20174;-69
2021/12/30 04:43:36;;;;;;;7.37;4.03;;;6.60;99.90;;;;;;5033510;28;20255;-68
2021/12/30 04:46:03;;;;;;;10.93;3.80;;;6.70;99.90;;;;;;5034185;28;20547;-69
2021/12/30 04:48:29;;;;;;;3.70;2.77;;;6.60;99.90;;;;;;5034274;28;20167;-68
2021/12/30 04:50:55;;;;;;;8.77;4.43;;;6.60;99.90;;;;;;5033592;28;20422;-71
2021/12/30 04:53:21;;;;;;;14.57;3.83;;;6.50;99.90;;;;;;5033177;28;20453;-68
2021/12/30 04:55:48;;;;;;;11.67;3.97;;;6.60;99.90;;;;;;5033947;28;20418;-69
2021/12/30 04:58:14;;;;;;;20.13;4.20;;;6.60;99.90;;;;;;5033965;28;20402;-71
2021/12/30 05:00:41;;;;;;;19.83;4.13;;;6.60;99.90;;;;;;5034220;28;20791;-69
2021/12/30 05:03:11;;;;;;;15.17;5.53;;;6.60;99.90;;;;;;5033212;28;20751;-69
2021/12/30 05:05:43;;;;;;;12.40;3.97;;;6.60;99.90;;;;;;5033767;28;20933;-70
2021/12/30 05:08:09;;;;;;;13.43;3.70;;;6.60;99.90;;;;;;5033644;28;20398;-69
2021/12/30 05:10:36;;;;;;;20.27;3.60;;;6.60;99.90;;;;;;5033237;28;20405;-69
2021/12/30 05:13:03;;;;;;;6.37;3.37;;;6.60;99.90;;;;;;5032946;28;20446;-69
2021/12/30 05:15:29;;;;;;;4.80;2.90;;;6.70;99.90;;;;;;5033762;28;20402;-69
2021/12/30 05:17:55;;;;;;;14.90;4.20;;;6.70;99.90;;;;;;5033575;28;20407;-69
2021/12/30 05:20:21;;;;;;;15.07;3.97;;;6.70;99.90;;;;;;5033541;28;20571;-69
2021/12/30 05:22:47;;;;;;;13.20;3.73;;;6.70;99.90;;;;;;5033009;28;20403;-68
2021/12/30 05:25:15;;;;;;;14.00;3.87;;;6.70;99.90;;;;;;5033535;28;20480;-69
2021/12/30 05:27:41;;;;;;;5.17;2.87;;;6.70;99.90;;;;;;5033392;28;20468;-70
2021/12/30 05:30:09;;;;;;;12.70;3.43;;;6.70;99.90;;;;;;5032895;28;20438;-70
2021/12/30 05:32:34;;;;;;;3.03;2.77;;;6.70;99.90;;;;;;5032656;28;20202;-70
2021/12/30 05:35:01;;;;;;;14.03;3.03;;;6.60;99.90;;;;;;5033397;28;20791;-69
2021/12/30 05:37:27;;;;;;;8.73;3.50;;;6.60;99.90;;;;;;5033382;28;20187;-69
2021/12/30 05:39:53;;;;;;;12.83;3.60;;;6.50;99.90;;;;;;5033210;28;20440;-69
2021/12/30 05:42:22;;;;;;;5.37;3.17;;;6.50;99.90;;;;;;5031552;28;20533;-70
2021/12/30 05:44:52;;;;;;;6.03;3.93;;;6.50;99.90;;;;;;5033288;28;20218;-68
2021/12/30 05:47:18;;;;;;;13.80;3.17;;;6.50;99.90;;;;;;5033012;28;20435;-70
2021/12/30 05:49:43;;;;;;;7.00;3.00;;;6.40;99.90;;;;;;5032603;28;20414;-70
2021/12/30 05:52:10;;;;;;;8.43;3.07;;;6.50;99.90;;;;;;5032434;28;20250;-71
2021/12/30 05:54:36;;;;;;;11.63;2.80;;;6.40;99.90;;;;;;5033041;28;20202;-69
2021/12/30 05:57:02;;;;;;;8.00;3.30;;;6.50;99.90;;;;;;5032919;28;20851;-70
2021/12/30 05:59:27;;;;;;;11.00;3.80;;;6.50;99.90;;;;;;5033255;28;20226;-69
2021/12/30 06:01:53;;;;;;;15.73;3.20;;;6.50;99.90;;;;;;5032638;28;20410;-70
2021/12/30 06:04:19;;;;;;;11.20;3.43;;;6.60;99.90;;;;;;5031993;28;20180;-69
2021/12/30 06:06:44;;;;;;;9.70;3.90;;;6.50;99.90;;;;;;5031599;28;20195;-70
2021/12/30 06:09:10;;;;;;;7.57;3.37;;;6.60;99.90;;;;;;5031338;28;20171;-70
2021/12/30 06:11:37;;;;;;;6.53;3.07;;;6.60;99.90;;;;;;5032936;28;20208;-70
2021/12/30 06:14:03;;;;;;;11.47;3.77;;;6.60;99.90;;;;;;5032374;28;20414;-69
2021/12/30 06:16:29;;;;;;;5.93;2.70;;;6.70;99.90;;;;;;5031480;28;20437;-70
2021/12/30 06:18:54;;;;;;;15.37;3.63;;;6.60;99.90;;;;;;5032740;28;20916;-71
2021/12/30 06:21:20;;;;;;;9.97;3.67;;;6.60;99.90;;;;;;5032917;28;20199;-71
2021/12/30 06:23:46;;;;;;;6.73;3.77;;;6.70;99.90;;;;;;5032121;28;20175;-71
2021/12/30 06:26:11;;;;;;;13.97;5.03;;;6.60;99.90;;;;;;5032884;28;20192;-71
2021/12/30 06:28:37;;;;;;;6.57;3.30;;;6.60;99.90;;;;;;5032102;28;20172;-70
2021/12/30 06:31:02;;;;;;;18.40;3.10;;;6.60;99.90;;;;;;5032702;28;20514;-71
2021/12/30 06:33:28;;;;;;;15.63;4.27;;;6.50;99.90;;;;;;5032126;28;20207;-71
2021/12/30 06:35:54;;;;;;;10.10;3.87;;;6.50;99.90;;;;;;5032514;28;20265;-70
2021/12/30 06:38:19;;;;;;;15.70;4.40;;;6.60;99.90;;;;;;5032649;28;20164;-71
2021/12/30 06:40:45;;;;;;;8.33;3.60;;;6.50;99.90;;;;;;5032651;28;20178;-70
2021/12/30 06:43:11;;;;;;;7.73;4.40;;;6.60;99.90;;;;;;5031960;28;20258;-69
2021/12/30 06:45:36;;;;;;;8.47;3.63;;;6.60;99.90;;;;;;5032070;28;20195;-71
2021/12/30 06:48:05;;;;;;;12.10;3.37;;;6.50;99.90;;;;;;5032599;28;20187;-69
2021/12/30 06:50:32;;;;;;;6.17;3.50;;;6.50;99.90;;;;;;5032446;28;20191;-70
2021/12/30 06:52:58;;;;;;;5.93;4.03;;;6.50;99.90;;;;;;5031651;28;20536;-70
2021/12/30 06:55:24;;;;;;;7.80;4.27;;;6.60;99.90;;;;;;5032562;28;20803;-69
2021/12/30 06:57:50;;;;;;;5.03;3.67;;;6.60;99.90;;;;;;5032551;28;20460;-68
2021/12/30 07:00:15;;;;;;;12.33;3.53;;;6.60;99.70;;;;;;5032515;28;20532;-70
2021/12/30 07:02:43;;;;;;;9.33;4.23;;;6.60;99.90;;;;;;5031338;28;20179;-70
2021/12/30 07:05:12;;;;;;;7.40;3.77;;;6.60;99.40;;;;;;5032417;28;20179;-69
2021/12/30 07:07:38;;;;;;;10.13;4.73;;;6.60;99.50;;;;;;5032378;28;20434;-68
2021/12/30 07:10:05;;;;;;;9.13;4.93;;;6.60;99.70;;;;;;5032542;28;20771;-70
2021/12/30 07:12:31;;;;;;;20.90;4.63;;;6.60;99.90;;;;;;5031651;28;20192;-70
2021/12/30 07:14:57;;;;;;;13.60;5.70;;;6.70;99.80;;;;;;5032314;28;20485;-70
2021/12/30 07:17:29;;;;;;;16.27;5.17;;;6.70;99.90;;;;;;5034624;28;20513;-69
2021/12/30 07:19:58;;;;;;;15.83;5.30;;;6.70;99.90;;;;;;5035894;28;20187;-71
2021/12/30 07:22:24;;;;;;;20.63;6.00;;;6.70;99.90;;;;;;5034605;28;20395;-69
2021/12/30 07:24:50;;;;;;;24.63;8.07;;;6.70;99.90;;;;;;5036020;28;20496;-71
2021/12/30 07:27:16;;;;;;;14.77;6.20;;;6.70;99.90;;;;;;5035709;28;20926;-70
2021/12/30 07:29:42;;;;;;;16.43;5.73;;;6.80;99.90;;;;;;5034751;28;20418;-70
2021/12/30 07:32:07;;;;;;;15.27;6.00;;;6.80;99.90;;;;;;5034001;28;20702;-71
2021/12/30 07:34:33;;;;;;;32.33;6.27;;;6.80;99.90;;;;;;5035599;28;20168;-70
2021/12/30 07:36:58;;;;;;;18.23;5.70;;;6.90;99.90;;;;;;5035429;28;20541;-71
2021/12/30 07:39:24;;;;;;;14.77;5.90;;;6.90;99.90;;;;;;5035048;28;20175;-71
2021/12/30 07:41:50;;;;;;;19.30;6.20;;;6.90;99.90;;;;;;5035316;28;20202;-70
2021/12/30 07:44:15;;;;;;;30.67;6.40;;;7.00;99.90;;;;;;5034968;28;20566;-72
2021/12/30 07:46:41;;;;;;;28.87;6.80;;;7.00;99.90;;;;;;5033995;28;20197;-69
2021/12/30 07:49:07;;;;;;;31.23;5.87;;;7.00;99.90;;;;;;5034282;28;20267;-71
2021/12/30 07:51:32;;;;;;;11.87;6.40;;;7.00;99.90;;;;;;5035143;28;20211;-72
2021/12/30 07:53:58;;;;;;;26.77;6.67;;;7.00;99.90;;;;;;5034494;28;20241;-70
2021/12/30 07:56:24;;;;;;;14.43;5.90;;;7.10;99.90;;;;;;5034767;28;20552;-71
2021/12/30 07:58:49;;;;;;;18.67;8.10;;;7.00;99.90;;;;;;5034101;28;20450;-70
2021/12/30 08:01:15;;;;;;;16.33;7.20;;;7.00;99.90;;;;;;5035020;28;20171;-71
2021/12/30 08:03:41;;;;;;;23.97;7.37;;;7.00;99.90;;;;;;5034359;28;20180;-69
2021/12/30 08:06:08;;;;;;;19.27;7.63;;;7.10;99.90;;;;;;5035078;28;20198;-70
2021/12/30 08:08:33;;;;;;;13.33;6.63;;;7.10;99.90;;;;;;5034987;28;20175;-71
2021/12/30 08:10:59;;;;;;;21.53;7.20;;;7.10;99.90;;;;;;5033962;28;21026;-71
2021/12/30 08:13:25;;;;;;;20.23;6.30;;;7.10;99.90;;;;;;5034228;28;20658;-70
2021/12/30 08:15:51;;;;;;;12.83;5.20;;;7.10;99.90;;;;;;5034470;28;20595;-71
2021/12/30 08:18:16;;;;;;;7.10;4.80;;;7.10;99.90;;;;;;5034518;28;20506;-70
2021/12/30 08:20:42;;;;;;;14.40;6.30;;;7.10;99.90;;;;;;5033814;28;20418;-69
2021/12/30 08:23:08;;;;;;;12.10;6.17;;;7.10;99.90;;;;;;5034370;28;20171;-71
2021/12/30 08:25:34;;;;;;;13.70;6.80;;;7.10;99.90;;;;;;5034660;28;20246;-69
2021/12/30 08:28:00;;;;;;;21.87;6.70;;;7.10;99.90;;;;;;5034309;28;20414;-69
2021/12/30 08:30:25;;;;;;;19.50;6.60;;;7.20;99.90;;;;;;5034457;28;20418;-70
2021/12/30 08:32:51;;;;;;;12.37;7.87;;;7.20;99.90;;;;;;5033601;28;20183;-70
2021/12/30 08:35:21;;;;;;;14.77;7.17;;;7.20;99.90;;;;;;5034418;28;20533;-70
2021/12/30 08:37:47;;;;;;;19.40;7.13;;;7.20;99.90;;;;;;5033027;28;20422;-70
2021/12/30 08:40:14;;;;;;;22.77;7.97;;;7.20;99.90;;;;;;5034219;28;20486;-72
2021/12/30 08:42:41;;;;;;;16.60;6.93;;;7.20;99.90;;;;;;5033762;28;20413;-69
2021/12/30 08:45:07;;;;;;;22.93;7.20;;;7.20;99.90;;;;;;5033235;28;20410;-69
2021/12/30 08:47:33;;;;;;;17.17;7.47;;;7.20;99.90;;;;;;5034131;28;20422;-70
2021/12/30 08:49:59;;;;;;;22.10;6.40;;;7.20;99.90;;;;;;5034253;28;20528;-70
2021/12/30 08:52:27;;;;;;;15.23;7.50;;;7.20;99.90;;;;;;5031468;28;20599;-72
2021/12/30 08:54:54;;;;;;;13.33;6.87;;;7.20;99.90;;;;;;5034192;28;20399;-71
2021/12/30 08:57:21;;;;;;;15.20;8.10;;;7.30;99.90;;;;;;5034059;28;20433;-69
2021/12/30 08:59:47;;;;;;;13.43;7.47;;;7.20;99.90;;;;;;5032551;28;20425;-71
2021/12/30 09:02:13;;;;;;;14.03;6.67;;;7.20;99.90;;;;;;5032171;28;20442;-70
2021/12/30 09:04:44;;;;;;;20.00;8.47;;;7.30;99.90;;;;;;5034048;28;20795;-69
2021/12/30 09:07:10;;;;;;;13.40;8.97;;;7.30;99.90;;;;;;5033836;28;20450;-71
2021/12/30 09:09:36;;;;;;;19.13;7.70;;;7.20;99.90;;;;;;5033737;28;20823;-69
2021/12/30 09:12:05;;;;;;;14.87;6.30;;;7.30;99.90;;;;;;5032585;28;20549;-70
2021/12/30 09:14:31;;;;;;;22.77;8.30;;;7.30;99.90;;;;;;5033772;28;20229;-70
2021/12/30 09:16:56;;;;;;;27.93;9.80;;;7.30;99.90;;;;;;5033675;28;20819;-70
2021/12/30 09:19:22;;;;;;;14.17;8.30;;;7.30;99.90;;;;;;5033858;28;20165;-70
2021/12/30 09:21:47;;;;;;;14.53;7.20;;;7.30;99.90;;;;;;5033395;28;20175;-71
2021/12/30 09:24:13;;;;;;;19.20;7.47;;;7.40;99.90;;;;;;5031663;28;20258;-71
2021/12/30 09:26:39;;;;;;;17.13;9.00;;;7.40;99.90;;;;;;5033523;28;20283;-71
2021/12/30 09:29:10;;;;;;;13.00;7.60;;;7.40;99.90;;;;;;5033089;28;20171;-72
2021/12/30 09:31:48;;;;;;;14.37;7.70;;;7.50;99.90;;;;;;5033290;28;20410;-70
2021/12/30 09:34:14;;;;;;;16.27;6.60;;;7.50;99.90;;;;;;5032812;28;20413;-71
2021/12/30 09:36:40;;;;;;;21.10;8.97;;;7.50;99.90;;;;;;5033468;28;20410;-71
2021/12/30 09:39:10;;;;;;;12.80;7.00;;;7.50;99.90;;;;;;5031252;28;20412;-71
2021/12/30 09:41:37;;;;;;;9.70;6.87;;;7.50;99.90;;;;;;5033225;28;20433;-72
2021/12/30 09:44:05;;;;;;;15.53;7.13;;;7.50;99.90;;;;;;5032634;28;20433;-71
2021/12/30 09:46:32;;;;;;;16.20;7.20;;;7.50;99.90;;;;;;5032962;28;20437;-73
2021/12/30 09:48:58;;;;;;;8.67;6.80;;;7.50;99.90;;;;;;5032707;28;20402;-71
2021/12/30 09:51:23;;;;;;;20.57;6.60;;;7.50;99.90;;;;;;5033200;28;20425;-71
2021/12/30 09:53:51;;;;;;;17.43;8.83;;;7.50;99.90;;;;;;5032315;28;20749;-70
2021/12/30 09:56:18;;;;;;;13.50;8.00;;;7.50;99.90;;;;;;5031631;28;20950;-72
2021/12/30 09:58:44;;;;;;;12.73;7.37;;;7.50;99.90;;;;;;5033105;28;20903;-70
2021/12/30 10:01:10;;;;;;;11.10;7.77;;;7.60;99.90;;;;;;5033036;28;20406;-71
2021/12/30 10:03:36;;;;;;;12.00;7.67;;;7.60;99.90;;;;;;5031186;28;20187;-70
2021/12/30 10:06:09;;;;;;;10.80;8.27;;;7.60;99.90;;;;;;5032922;28;20648;-71
2021/12/30 10:08:40;;;;;;;13.33;7.83;;;7.60;99.90;;;;;;5032835;28;20171;-71
2021/12/30 10:11:14;;;;;;;13.73;9.37;;;7.80;99.90;;;;;;5033476;28;20489;-70
2021/12/30 10:13:56;;;;;;;16.77;8.27;;;7.90;99.90;;;;;;5032763;28;20441;-70
2021/12/30 10:16:23;;;;;;;12.10;7.00;;;7.90;99.90;;;;;;5033112;28;20440;-71
2021/12/30 10:18:57;;;;;;;9.83;6.33;;;8.00;99.90;;;;;;5033089;28;20441;-71
2021/12/30 10:21:38;;;;;;;12.53;8.30;;;8.00;99.90;;;;;;5033363;28;20390;-71
2021/12/30 10:24:09;;;;;;;13.93;8.17;;;8.10;99.90;;;;;;5031815;28;20410;-71
2021/12/30 10:26:55;;;;;;;11.03;7.30;;;8.00;99.90;;;;;;5031961;28;20438;-71
2021/12/30 10:29:21;;;;;;;10.43;8.10;;;8.00;99.90;;;;;;5033127;28;20403;-70
2021/12/30 10:31:48;;;;;;;11.77;7.43;;;8.00;99.90;;;;;;5031254;28;20533;-73
2021/12/30 10:34:16;;;;;;;23.50;8.37;;;8.10;99.90;;;;;;5032177;28;20205;-70
2021/12/30 10:36:47;;;;;;;15.77;8.30;;;8.10;99.90;;;;;;5032364;28;20427;-72
2021/12/30 10:39:29;;;;;;;13.43;9.67;;;8.10;99.90;;;;;;5032447;28;20481;-72
2021/12/30 10:42:19;;;;;;;12.53;7.57;;;8.20;99.90;;;;;;5032368;28;20398;-71
2021/12/30 10:44:53;;;;;;;9.13;7.27;;;8.20;99.90;;;;;;5032075;28;20403;-71
2021/12/30 10:47:25;;;;;;;14.23;7.70;;;8.30;99.90;;;;;;5031438;28;20438;-71
2021/12/30 10:50:03;;;;;;;7.10;5.97;;;8.30;99.90;;;;;;5031417;28;20427;-71
2021/12/30 10:52:29;;;;;;;12.83;6.90;;;8.30;99.90;;;;;;5034433;28;20508;-71
2021/12/30 10:54:56;;;;;;;10.60;7.07;;;8.40;99.90;;;;;;5036265;28;20397;-71
2021/12/30 10:57:30;;;;;;;6.60;5.27;;;8.40;99.90;;;;;;5036599;28;20476;-70
2021/12/30 10:59:56;;;;;;;8.27;6.47;;;8.50;99.90;;;;;;5036711;28;20406;-71
2021/12/30 11:02:26;;;;;;;8.57;6.07;;;8.50;99.90;;;;;;5035253;28;20406;-71
2021/12/30 11:05:03;;;;;;;7.23;5.60;;;8.60;99.90;;;;;;5036384;28;20408;-72
2021/12/30 11:07:47;;;;;;;8.27;4.97;;;8.60;99.90;;;;;;5036403;28;20523;-70
2021/12/30 11:10:17;;;;;;;5.93;5.30;;;8.60;99.90;;;;;;5035077;28;20414;-70
2021/12/30 11:12:45;;;;;;;9.00;4.93;;;8.70;99.90;;;;;;5034538;28;20993;-70
2021/12/30 11:15:23;;;;;;;5.67;4.13;;;8.70;99.90;;;;;;5036217;28;20441;-70
2021/12/30 11:17:50;;;;;;;5.90;4.47;;;8.70;99.90;;;;;;5036449;28;20399;-71
2021/12/30 11:20:19;;;;;;;6.10;4.87;;;8.80;99.90;;;;;;5036221;28;20919;-71
2021/12/30 11:22:47;;;;;;;8.00;4.40;;;8.80;99.90;;;;;;5033788;28;20446;-71
2021/12/30 11:25:15;;;;;;;7.00;3.97;;;8.90;99.90;;;;;;5034999;28;20437;-70
2021/12/30 11:27:41;;;;;;;4.03;3.33;;;8.90;99.90;;;;;;5035965;28;20919;-70
2021/12/30 11:30:13;;;;;;;7.10;4.73;;;8.90;99.90;;;;;;5036204;28;20394;-71
2021/12/30 11:32:40;;;;;;;4.00;3.70;;;8.90;99.90;;;;;;5035278;28;20451;-71
2021/12/30 11:35:07;;;;;;;6.07;4.53;;;9.00;99.90;;;;;;5035856;28;20392;-71
2021/12/30 11:37:34;;;;;;;6.07;5.03;;;8.90;99.90;;;;;;5035905;28;20420;-70
2021/12/30 11:40:05;;;;;;;7.57;5.20;;;9.00;99.90;;;;;;5034619;28;20443;-71
2021/12/30 11:42:39;;;;;;;10.03;5.40;;;9.00;99.90;;;;;;5034419;28;20450;-71
2021/12/30 11:45:29;;;;;;;4.20;3.80;;;9.00;99.90;;;;;;5034768;28;20402;-71
2021/12/30 11:47:57;;;;;;;7.57;4.67;;;9.00;99.90;;;;;;5035874;28;20403;-71
2021/12/30 11:50:32;;;;;;;4.40;4.00;;;9.00;99.90;;;;;;5035768;28;20428;-71
2021/12/30 11:53:06;;;;;;;4.63;4.20;;;9.10;99.90;;;;;;5034909;28;20447;-70
2021/12/30 11:56:00;;;;;;;6.47;5.73;;;9.20;99.90;;;;;;5034240;28;20427;-70
2021/12/30 11:58:32;;;;;;;6.30;4.63;;;9.10;99.90;;;;;;5035669;28;20430;-71
2021/12/30 12:01:19;;;;;;;6.30;4.03;;;9.10;99.90;;;;;;5033501;28;20430;-72
2021/12/30 12:03:54;;;;;;;4.20;3.80;;;9.10;99.90;;;;;;5034063;28;20431;-69
2021/12/30 12:06:31;;;;;;;6.73;4.80;;;9.10;99.90;;;;;;5035486;28;20435;-71
2021/12/30 12:09:01;;;;;;;4.37;3.50;;;9.10;99.90;;;;;;5035433;28;20406;-71
2021/12/30 12:11:28;;;;;;;7.30;4.73;;;9.20;99.90;;;;;;5033848;28;20414;-70
2021/12/30 12:14:09;;;;;;;4.30;3.90;;;9.20;99.90;;;;;;5034517;28;20464;-70
2021/12/30 12:16:53;;;;;;;11.73;5.00;;;9.30;99.90;;;;;;5034814;28;20987;-71
2021/12/30 12:19:21;;;;;;;3.77;3.40;;;9.30;99.90;;;;;;5034884;28;20408;-71
2021/12/30 12:21:53;;;;;;;3.83;3.43;;;9.30;99.90;;;;;;5034836;28;20392;-74
2021/12/30 12:24:22;;;;;;;5.47;4.40;;;9.30;99.90;;;;;;5034567;28;20405;-71
2021/12/30 12:26:50;;;;;;;3.60;3.30;;;9.40;99.90;;;;;;5034812;28;20422;-71
2021/12/30 12:29:27;;;;;;;3.27;2.97;;;9.40;99.90;;;;;;5034905;28;20775;-69
2021/12/30 12:31:54;;;;;;;5.20;3.40;;;9.40;99.90;;;;;;5033358;28;20918;-70
2021/12/30 12:34:50;;;;;;;4.97;3.20;;;9.50;99.90;;;;;;5033124;28;20871;-70
2021/12/30 12:37:39;;;;;;;4.00;3.60;;;9.50;99.90;;;;;;5033615;28;20440;-71
2021/12/30 12:40:16;;;;;;;5.77;4.13;;;9.50;99.90;;;;;;5034813;28;20434;-70
2021/12/30 12:42:51;;;;;;;5.73;3.73;;;9.50;99.90;;;;;;5033898;28;20417;-71
2021/12/30 12:45:30;;;;;;;5.10;4.10;;;9.50;99.90;;;;;;5034593;28;20905;-70
2021/12/30 12:48:24;;;;;;;5.23;4.73;;;9.50;99.90;;;;;;5034485;28;20453;-70
2021/12/30 12:50:54;;;;;;;3.30;3.00;;;9.60;99.90;;;;;;5033377;28;20438;-71
2021/12/30 12:53:26;;;;;;;3.80;3.33;;;9.60;99.90;;;;;;5033691;28;20491;-71
2021/12/30 12:56:04;;;;;;;3.33;3.03;;;9.80;99.90;;;;;;5034231;28;20429;-70